Time;durP1;ratioP1;P1;durP2;ratioP2;P2;SDS_P1;SDS_P2;PMS_P1;PMS_P2;Temp;Humidity;BMP_temperature;BMP_pressure;BME280_temperature;BME280_humidity;BME280_pressure;Samples;Min_cycle;Max_cycle;Signal;HPM_P1;HPM_P2
2020/12/01 00:01:46;;;;;;;;;;;-2.50;99.90;;;-3.57;88.82;95944.25;10535514;28;2047;-81
2020/12/01 00:06:48;;;;;;;;;;;-2.50;99.90;;;-3.60;89.38;95939.38;10535513;28;1564;-82
2020/12/01 00:11:50;;;;;;;;;;;-2.40;99.90;;;-3.54;88.77;95928.16;10538010;28;2052;-81
2020/12/01 00:16:52;;;;;;;;;;;-2.40;99.90;;;-3.52;88.81;95939.28;10536006;28;2001;-82
2020/12/01 00:21:54;;;;;;;;;;;-2.30;99.90;;;-3.66;88.63;95940.09;10537407;28;2040;-82
2020/12/01 00:26:55;;;;;;;;;;;-2.40;99.90;;;-3.73;89.30;95945.25;10536950;28;1675;-83
2020/12/01 00:31:57;;;;;;;;;;;-1.00;99.90;;;-3.80;89.21;95944.34;10550916;28;1997;-83
2020/12/01 00:36:59;;;;;;;;;;;-2.50;99.90;;;-3.74;89.98;95942.81;10565950;28;2035;-82
2020/12/01 00:42:00;;;;;;;;;;;-2.60;99.90;;;-3.84;89.53;95951.75;10580311;28;1532;-82
2020/12/01 00:47:02;;;;;;;;;;;-1.90;99.90;;;-3.87;89.72;95941.63;10561607;28;2056;-83
2020/12/01 00:52:04;;;;;;;;;;;-2.60;99.90;;;-3.88;89.91;95929.50;10563797;28;2048;-82
2020/12/01 00:57:06;;;;;;;;;;;-2.70;99.90;;;-3.85;89.85;95925.69;10548473;28;2007;-80
2020/12/01 01:02:08;;;;;;;;;;;-2.60;99.90;;;-3.94;89.67;95916.28;10537969;28;1709;-81
2020/12/01 01:07:09;;;;;;;;;;;-2.00;99.90;;;-3.93;90.33;95918.72;10527442;28;2009;-81
2020/12/01 01:12:11;;;;;;;;;;;-2.70;99.90;;;-3.88;90.49;95903.25;10537230;28;1989;-82
2020/12/01 01:17:13;;;;;;;;;;;-2.80;99.90;;;-3.81;90.43;95896.25;10535628;28;2131;-82
2020/12/01 01:22:14;;;;;;;;;;;-2.10;99.90;;;-3.57;90.66;95892.53;10535899;28;2272;-82
2020/12/01 01:27:16;;;;;;;;;;;-2.60;99.90;;;-3.29;89.50;95879.53;10543937;28;1884;-81
2020/12/01 01:32:18;;;;;;;;;;;-2.30;99.90;;;-3.15;89.12;95863.91;10536514;28;2023;-81
2020/12/01 01:37:19;;;;;;;;;;;-2.20;99.90;;;-3.06;87.76;95853.06;10549888;28;2001;-81
2020/12/01 01:42:21;;;;;;;;;;;-2.00;99.90;;;-2.89;87.67;95837.88;10565454;28;2076;-82
2020/12/01 01:47:23;;;;;;;;;;;-1.90;99.90;;;-2.77;86.39;95831.09;10531198;28;1914;-83
2020/12/01 01:52:24;;;;;;;;;;;-1.70;99.90;;;-2.75;86.39;95844.06;10531386;28;2040;-82
2020/12/01 01:57:26;;;;;;;;;;;-1.70;99.90;;;-2.79;86.49;95846.28;10554809;28;2155;-80
2020/12/01 02:02:28;;;;;;;;;;;-1.60;99.90;;;-2.79;86.24;95859.44;10549269;28;2101;-81
2020/12/01 02:07:30;;;;;;;;;;;-1.70;99.90;;;-2.80;86.33;95875.38;10556128;28;2273;-82
2020/12/01 02:12:31;;;;;;;;;;;-1.70;99.90;;;-2.87;86.36;95851.63;10572096;28;2200;-85
2020/12/01 02:17:33;;;;;;;;;;;-1.70;99.90;;;-2.88;86.78;95854.47;10561938;28;2148;-85
2020/12/01 02:22:35;;;;;;;;;;;-1.70;99.90;;;-2.89;86.84;95827.34;10566018;28;2196;-85
2020/12/01 02:27:36;;;;;;;;;;;-1.80;99.90;;;-2.84;86.38;95811.00;10552424;28;1694;-82
2020/12/01 02:32:38;;;;;;;;;;;-1.70;99.90;;;-2.77;86.84;95814.50;10529335;28;2182;-84
2020/12/01 02:37:40;;;;;;;;;;;-1.60;99.90;;;-2.83;86.50;95810.81;10535607;28;2084;-85
2020/12/01 02:42:42;;;;;;;;;;;-1.70;99.90;;;-2.87;86.12;95793.75;10572630;28;1815;-87
2020/12/01 02:47:44;;;;;;;;;;;-1.70;99.90;;;-2.83;86.86;95783.69;10568690;28;2086;-86
2020/12/01 02:52:46;;;;;;;;;;;-1.70;99.90;;;-2.75;86.67;95771.19;10563068;28;2092;-83
2020/12/01 02:57:47;;;;;;;;;;;-1.60;99.90;;;-2.70;86.60;95772.47;10524833;28;2115;-83
2020/12/01 03:02:49;;;;;;;;;;;-1.60;99.90;;;-2.75;85.84;95770.38;10534762;28;2155;-84
2020/12/01 03:07:51;;;;;;;;;;;-1.60;99.90;;;-2.83;85.97;95773.97;10535157;28;1901;-84
2020/12/01 03:12:52;;;;;;;;;;;-1.60;99.90;;;-2.80;86.29;95767.50;10529222;28;1830;-82
2020/12/01 03:17:54;;;;;;;;;;;-1.60;99.90;;;-2.72;86.11;95760.31;10524110;28;2090;-82
2020/12/01 03:22:56;;;;;;;;;;;-1.60;99.90;;;-2.67;86.38;95761.53;10524511;28;1845;-82
2020/12/01 03:27:57;;;;;;;;;;;-1.60;99.90;;;-2.53;85.84;95758.81;10516295;28;2056;-82
2020/12/01 03:32:59;;;;;;;;;;;-1.50;99.90;;;-2.42;85.45;95757.47;10524576;28;2252;-82
2020/12/01 03:38:01;;;;;;;;;;;-1.30;99.90;;;-2.35;85.21;95745.19;10527887;28;2257;-82
2020/12/01 03:43:02;;;;;;;;;;;-1.30;99.90;;;-2.34;84.69;95741.53;10525245;28;2155;-82
2020/12/01 03:48:04;;;;;;;;;;;0.10;99.90;;;-2.27;84.47;95726.59;10530475;28;2083;-84
2020/12/01 03:53:06;;;;;;;;;;;-1.20;99.90;;;-2.22;84.32;95724.19;10534583;28;1805;-84
2020/12/01 03:58:07;;;;;;;;;;;-1.20;99.90;;;-2.14;83.54;95714.50;10529569;28;2158;-83
2020/12/01 04:03:09;;;;;;;;;;;-1.00;99.90;;;-2.05;83.96;95713.31;10532315;28;2194;-83
2020/12/01 04:08:11;;;;;;;;;;;-1.00;99.90;;;-1.92;82.96;95702.81;10532312;28;1884;-85
2020/12/01 04:13:12;;;;;;;;;;;-0.90;99.90;;;-1.84;82.73;95689.47;10545707;28;2005;-83
2020/12/01 04:18:14;;;;;;;;;;;-0.80;99.90;;;-1.79;82.64;95688.88;10536448;28;2116;-84
2020/12/01 04:23:16;;;;;;;;;;;-0.70;99.90;;;-1.84;82.24;95684.22;10540564;28;2108;-83
2020/12/01 04:28:17;;;;;;;;;;;-0.70;99.90;;;-1.85;83.05;95677.28;10533007;28;1928;-83
2020/12/01 04:33:19;;;;;;;;;;;-0.60;99.90;;;-1.84;83.08;95668.41;10555461;28;1902;-82
2020/12/01 04:38:21;;;;;;;;;;;-0.70;99.90;;;-1.99;82.95;95667.72;10575881;28;1873;-87
2020/12/01 04:43:22;;;;;;;;;;;0.60;99.90;;;-1.93;82.50;95669.59;10564908;28;1809;-88
2020/12/01 04:48:24;;;;;;;;;;;-0.80;99.90;;;-1.98;82.93;95662.25;10558117;28;2218;-82
2020/12/01 04:53:26;;;;;;;;;;;1.50;99.90;;;-1.84;82.91;95654.41;10553836;28;2120;-83
2020/12/01 04:58:28;;;;;;;;;;;0.80;99.90;;;-1.90;81.92;95653.41;10536705;28;2055;-83
2020/12/01 05:03:30;;;;;;;;;;;-0.80;99.90;;;-1.73;81.47;95649.34;10534370;28;2084;-83
2020/12/01 05:08:32;;;;;;;;;;;-0.70;99.90;;;-1.77;81.36;95647.34;10530642;28;2083;-82
2020/12/01 05:13:34;;;;;;;;;;;-0.60;99.90;;;-1.75;80.96;95630.31;10529031;28;2101;-83
2020/12/01 05:18:36;;;;;;;;;;;-0.70;99.90;;;-1.86;81.72;95627.44;10533148;28;2108;-83
2020/12/01 05:23:37;;;;;;;;;;;0.70;99.90;;;-1.90;80.81;95616.50;10535212;28;2142;-83
2020/12/01 05:28:39;;;;;;;;;;;-0.80;99.90;;;-1.87;80.27;95625.81;10524148;28;2753;-82
2020/12/01 05:33:41;;;;;;;;;;;-0.80;99.90;;;-1.88;80.37;95609.22;10533498;28;1929;-83
2020/12/01 05:38:44;;;;;;;;;;;-0.70;99.90;;;-1.88;80.23;95603.94;10522970;28;2332;-82
2020/12/01 05:43:46;;;;;;;;;;;-0.80;99.90;;;-1.87;79.52;95595.03;10514354;28;2165;-81
2020/12/01 05:48:48;;;;;;;;;;;-0.50;99.90;;;-1.81;78.48;95596.84;10529661;28;2226;-83
2020/12/01 05:53:49;;;;;;;;;;;-0.70;99.90;;;-1.65;78.71;95598.31;10534730;28;2193;-83
2020/12/01 05:58:51;;;;;;;;;;;-0.70;99.90;;;-1.46;77.83;95588.78;10532690;28;2304;-83
2020/12/01 06:03:53;;;;;;;;;;;-0.50;99.90;;;-1.47;77.79;95587.13;10541359;28;2178;-82
2020/12/01 06:08:55;;;;;;;;;;;-0.40;99.90;;;-1.33;77.09;95586.13;10521036;28;2165;-84
2020/12/01 06:13:57;;;;;;;;;;;-0.30;99.90;;;-1.26;76.60;95583.50;10539593;28;2525;-82
2020/12/01 06:18:58;;;;;;;;;;;-0.20;99.90;;;-1.20;77.52;95591.41;10540490;28;2161;-82
2020/12/01 06:24:00;;;;;;;;;;;-0.10;99.90;;;-1.27;76.85;95566.88;10539708;28;2139;-83
2020/12/01 06:29:02;;;;;;;;;;;-0.10;99.90;;;-1.32;77.67;95566.66;10526433;28;2095;-81
2020/12/01 06:34:04;;;;;;;;;;;0.50;99.90;;;-1.21;78.44;95576.59;10548731;28;1992;-83
2020/12/01 06:39:06;;;;;;;;;;;-0.10;99.90;;;-1.21;78.32;95579.22;10537296;28;2098;-85
2020/12/01 06:44:08;;;;;;;;;;;-0.10;99.90;;;-1.44;79.74;95565.66;10551087;28;1776;-84
2020/12/01 06:49:10;;;;;;;;;;;-0.20;99.90;;;-1.44;81.17;95561.19;10533656;28;2049;-84
2020/12/01 06:54:12;;;;;;;;;;;1.10;99.90;;;-1.46;81.78;95554.50;10565383;28;1969;-84
2020/12/01 06:59:13;;;;;;;;;;;-0.30;99.90;;;-1.36;83.70;95550.44;10564269;28;2079;-84
2020/12/01 07:04:15;;;;;;;;;;;-0.30;99.90;;;-1.36;83.21;95536.44;10559738;28;1996;-86
2020/12/01 07:09:17;;;;;;;;;;;-0.30;99.90;;;-1.26;85.04;95541.31;10567712;28;1958;-85
2020/12/01 07:14:19;;;;;;;;;;;1.20;99.90;;;-1.18;84.95;95535.81;10540102;28;2036;-83
2020/12/01 07:19:25;;;;;;;;;;;-0.10;99.90;;;-1.09;85.56;95538.00;10531718;28;1919;-85
2020/12/01 07:24:27;;;;;;;;;;;0.90;99.90;;;-1.03;84.93;95546.91;10552315;28;2060;-83
2020/12/01 07:29:29;;;;;;;;;;;0.00;99.90;;;-1.07;86.96;95550.19;10550646;28;1940;-82
2020/12/01 07:34:31;;;;;;;;;;;0.10;99.90;;;-1.04;86.64;95560.31;10556601;28;1977;-81
2020/12/01 07:39:33;;;;;;;;;;;0.10;99.90;;;-0.94;88.05;95556.25;10545965;28;2007;-81
2020/12/01 07:44:50;;;;;;;;;;;0.10;99.90;;;-0.91;88.55;95555.81;10549018;28;1821;-85
2020/12/01 07:49:52;;;;;;;;;;;1.60;99.90;;;-0.87;87.86;95548.31;10543223;28;1845;-84
2020/12/01 07:54:54;;;;;;;;;;;2.10;99.90;;;-0.88;89.00;95546.69;10547359;28;1965;-82
2020/12/01 07:59:57;;;;;;;;;;;0.10;99.90;;;-0.88;88.07;95541.41;10546482;28;1729;-84
2020/12/01 08:04:59;;;;;;;;;;;0.20;99.90;;;-0.88;88.10;95538.78;10538987;28;2039;-84
2020/12/01 08:10:01;;;;;;;;;;;0.20;99.90;;;-0.83;88.10;95531.88;10554412;28;1754;-83
2020/12/01 08:15:03;;;;;;;;;;;0.20;99.90;;;-0.75;87.74;95532.66;10538719;28;1922;-82
2020/12/01 08:20:05;;;;;;;;;;;0.50;99.90;;;-0.64;88.34;95531.97;10543781;28;1734;-84
2020/12/01 08:25:07;;;;;;;;;;;2.00;99.90;;;-0.64;88.56;95527.50;10538997;28;1993;-81
2020/12/01 08:30:10;;;;;;;;;;;0.50;99.90;;;-0.51;88.09;95529.28;10542784;28;2006;-82
2020/12/01 08:35:11;;;;;;;;;;;1.10;99.90;;;-0.55;87.29;95518.34;10553371;28;1910;-82
2020/12/01 08:40:13;;;;;;;;;;;0.60;99.90;;;-0.47;87.94;95522.56;10537223;28;1958;-82
2020/12/01 08:45:15;;;;;;;;;;;2.30;99.90;;;-0.36;87.89;95518.44;10545914;28;2080;-82
2020/12/01 08:50:17;;;;;;;;;;;0.70;99.90;;;-0.34;87.31;95519.84;10573833;28;1669;-84
2020/12/01 08:55:19;;;;;;;;;;;0.70;99.90;;;-0.21;88.43;95513.69;10556534;28;2085;-83
2020/12/01 09:00:23;;;;;;;;;;;1.80;99.90;;;-0.12;88.06;95508.97;10573154;28;1934;-82
2020/12/01 09:05:24;;;;;;;;;;;0.90;99.90;;;0.03;88.18;95511.31;10574679;28;1622;-84
2020/12/01 09:10:29;;;;;;;;;;;1.00;99.90;;;0.13;88.25;95507.16;10552974;28;1820;-83
2020/12/01 09:15:40;;;;;;;;;;;1.40;99.90;;;0.28;88.41;95506.84;10543970;28;2030;-83
2020/12/01 09:20:56;;;;;;;;;;;1.30;99.90;;;0.36;88.42;95506.56;10550947;28;1550;-82
2020/12/01 09:25:58;;;;;;;;;;;1.40;99.90;;;0.30;88.99;95502.16;10544173;28;1663;-81
2020/12/01 09:30:59;;;;;;;;;;;1.40;99.90;;;0.35;89.32;95499.66;10553328;28;1467;-83
2020/12/01 09:36:02;;;;;;;;;;;1.40;99.90;;;0.29;90.07;95495.25;10545704;28;1917;-82
2020/12/01 09:41:04;;;;;;;;;;;3.30;99.90;;;0.30;89.24;95490.75;10551505;28;1602;-81
2020/12/01 09:46:09;;;;;;;;;;;1.40;99.90;;;0.44;89.25;95477.19;10558626;28;1541;-83
2020/12/01 09:51:10;;;;;;;;;;;1.80;99.90;;;0.54;89.05;95488.09;10547424;28;1579;-80
2020/12/01 09:56:22;;;;;;;;;;;1.60;99.90;;;0.60;87.45;95481.13;10552341;28;1882;-83
2020/12/01 10:38:48;;;;;;;;;;;2.20;99.90;;;1.46;87.63;95490.75;10549477;28;1614;-79
2020/12/01 10:43:50;;;;;;;;;;;2.40;99.90;;;1.48;87.48;95483.41;10556085;28;1657;-81
2020/12/01 10:48:52;;;;;;;;;;;2.40;99.90;;;1.70;85.54;95475.78;10562756;28;1622;-80
2020/12/01 10:53:55;;;;;;;;;;;2.70;99.90;;;1.63;86.43;95481.16;10550387;28;1979;-82
2020/12/01 10:58:58;;;;;;;;;;;2.70;99.90;;;1.62;87.01;95484.84;10546447;28;1682;-81
2020/12/01 11:04:00;;;;;;;;;;;4.40;99.90;;;1.69;85.54;95476.81;10551870;28;1447;-81
2020/12/01 11:09:01;;;;;;;;;;;2.70;99.90;;;1.67;85.29;95470.13;10554075;28;2198;-82
2020/12/01 11:14:03;;;;;;;;;;;2.80;99.90;;;1.54;87.13;95482.53;10559915;28;1988;-82
2020/12/01 11:19:09;;;;;;;;;;;2.70;99.90;;;1.59;87.05;95487.97;10542814;28;1978;-80
2020/12/01 11:24:10;;;;;;;;;;;2.70;99.90;;;1.47;85.79;95481.81;10561826;28;2085;-81
2020/12/01 11:29:12;;;;;;;;;;;3.70;99.90;;;1.21;86.43;95472.34;10547567;28;1882;-82
2020/12/01 11:34:14;;;;;;;;;;;2.40;99.90;;;1.18;89.10;95477.25;10550137;28;2070;-81
2020/12/01 11:39:15;;;;;;;;;;;2.30;99.90;;;1.24;88.20;95474.53;10546436;28;1954;-82
2020/12/01 11:44:17;;;;;;;;;;;2.30;99.90;;;1.24;88.25;95476.38;10552473;28;2082;-82
2020/12/01 11:49:19;;;;;;;;;;;2.30;99.90;;;1.27;88.47;95486.50;10540180;28;1806;-82
2020/12/01 11:54:21;;;;;;;;;;;2.40;99.90;;;1.44;88.96;95476.13;10530149;28;2021;-82
2020/12/01 11:59:23;;;;;;;;;;;2.50;99.90;;;1.53;87.98;95475.59;10570153;28;2288;-82
2020/12/01 12:04:25;;;;;;;;;;;2.60;99.90;;;1.53;88.37;95472.16;10553580;28;1547;-83
2020/12/01 12:09:26;;;;;;;;;;;2.70;99.90;;;1.89;87.74;95474.69;10557172;28;1940;-83
2020/12/01 12:14:28;;;;;;;;;;;2.80;99.90;;;1.83;86.36;95472.94;10553169;28;1910;-82
2020/12/01 12:19:30;;;;;;;;;;;4.20;99.90;;;1.87;87.90;95478.59;10554589;28;2068;-85
2020/12/01 12:24:31;;;;;;;;;;;2.90;99.90;;;1.77;88.34;95462.44;10555416;28;1658;-84
2020/12/01 12:29:33;;;;;;;;;;;2.80;99.90;;;1.49;88.45;95474.44;10557707;28;1758;-85
2020/12/01 12:34:35;;;;;;;;;;;2.80;99.90;;;1.37;88.93;95475.41;10565371;28;2013;-85
2020/12/01 12:39:38;;;;;;;;;;;2.60;99.90;;;1.27;89.87;95476.75;10582743;28;1826;-85
2020/12/01 12:44:40;;;;;;;;;;;2.50;99.90;;;1.30;90.74;95476.28;10582989;28;1622;-85
2020/12/01 12:49:42;;;;;;;;;;;2.40;99.90;;;1.32;91.15;95471.56;10571273;28;1714;-84
2020/12/01 12:54:44;;;;;;;;;;;2.60;99.90;;;1.29;91.22;95474.69;10558249;28;1878;-85
2020/12/01 12:59:47;;;;;;;;;;;2.60;99.90;;;1.20;89.87;95465.41;10566114;28;2020;-85
2020/12/01 13:04:48;;;;;;;;;;;2.60;99.90;;;1.20;91.60;95475.19;10566328;28;2025;-88
2020/12/01 13:10:01;;;;;;;;;;;2.30;99.90;;;1.24;91.27;95471.88;10567466;28;1875;-80
2020/12/01 13:15:03;;;;;;;;;;;2.30;99.90;;;1.34;91.62;95477.47;10571593;28;1985;-79
2020/12/01 13:20:05;;;;;;;;;;;2.30;99.90;;;1.30;91.06;95486.09;10567800;28;2024;-81
2020/12/01 13:25:06;;;;;;;;;;;2.30;99.90;;;1.40;90.78;95474.94;10557154;28;1977;-80
2020/12/01 13:30:08;;;;;;;;;;;2.40;99.90;;;1.39;90.79;95476.78;10564082;28;1962;-80
2020/12/01 13:35:10;;;;;;;;;;;3.00;99.90;;;1.32;90.70;95479.53;10563679;28;2075;-81
2020/12/01 13:40:12;;;;;;;;;;;2.40;99.90;;;1.38;90.46;95499.00;10583295;28;1776;-82
2020/12/01 13:45:14;;;;;;;;;;;2.50;99.90;;;1.53;90.62;95498.66;10579870;28;1969;-81
2020/12/01 13:50:16;;;;;;;;;;;2.50;99.90;;;1.59;90.84;95505.66;10562847;28;2020;-80
2020/12/01 13:55:18;;;;;;;;;;;3.60;99.90;;;1.66;89.87;95511.72;10549951;28;1985;-82
2020/12/01 14:00:19;;;;;;;;;;;2.80;99.90;;;1.68;90.82;95509.63;10552692;28;1961;-81
2020/12/01 14:05:21;;;;;;;;;;;2.80;99.90;;;1.63;90.83;95512.94;10554492;28;1983;-82
2020/12/01 14:10:23;;;;;;;;;;;4.70;99.90;;;1.61;90.30;95517.69;10568706;28;2104;-81
2020/12/01 14:15:24;;;;;;;;;;;4.30;99.90;;;1.58;90.64;95527.91;10571247;28;1886;-81
2020/12/01 14:20:26;;;;;;;;;;;2.70;99.90;;;1.58;89.99;95526.06;10583683;28;1759;-80
2020/12/01 14:25:28;;;;;;;;;;;2.70;99.90;;;1.49;90.69;95524.75;10559217;28;1773;-80
2020/12/01 14:30:30;;;;;;;;;;;2.60;99.90;;;1.55;91.40;95520.41;10545326;28;2053;-81
2020/12/01 14:35:31;;;;;;;;;;;2.60;99.90;;;1.54;91.96;95524.91;10546131;28;2024;-79
2020/12/01 14:40:34;;;;;;;;;;;2.60;99.90;;;1.56;91.79;95532.63;10559776;28;1924;-81
2020/12/01 14:45:36;;;;;;;;;;;2.90;99.90;;;1.51;91.68;95537.78;10568980;28;1817;-81
2020/12/01 14:50:40;;;;;;;;;;;2.60;99.90;;;1.49;91.20;95537.19;10559111;28;1839;-80
2020/12/01 14:55:42;;;;;;;;;;;2.50;99.90;;;1.45;91.79;95541.31;10553188;28;1973;-80
2020/12/01 15:00:44;;;;;;;;;;;2.50;99.90;;;1.48;91.82;95549.63;10549787;28;1965;-80
2020/12/01 15:05:46;;;;;;;;;;;3.60;99.90;;;1.45;91.69;95547.41;10537282;28;2001;-80
2020/12/01 15:10:47;;;;;;;;;;;4.10;99.90;;;1.38;91.33;95557.28;10556412;28;1962;-80
2020/12/01 15:15:52;;;;;;;;;;;2.50;99.90;;;1.38;91.94;95545.88;10550157;28;2031;-82
2020/12/01 15:20:53;;;;;;;;;;;4.20;99.90;;;1.37;91.97;95547.72;10556672;28;1985;-80
2020/12/01 15:25:57;;;;;;;;;;;2.80;99.90;;;1.40;92.53;95549.94;10574778;28;1976;-81
2020/12/01 15:30:59;;;;;;;;;;;2.40;99.90;;;1.44;92.98;95556.41;10556511;28;1968;-82
2020/12/01 15:36:01;;;;;;;;;;;3.60;99.90;;;1.42;92.33;95558.47;10562127;28;1882;-81
2020/12/01 15:41:03;;;;;;;;;;;2.50;99.90;;;1.40;92.38;95565.84;10568395;28;2017;-82
2020/12/01 15:46:05;;;;;;;;;;;3.40;99.90;;;1.36;91.86;95569.94;10558587;28;1826;-80
2020/12/01 15:51:06;;;;;;;;;;;4.20;99.90;;;1.30;91.98;95576.13;10536407;28;2065;-81
2020/12/01 15:56:08;;;;;;;;;;;2.40;99.90;;;1.17;91.39;95576.25;10550420;28;2016;-81
2020/12/01 16:01:10;;;;;;;;;;;2.60;99.90;;;1.16;92.14;95578.09;10549003;28;2004;-79
2020/12/01 16:06:12;;;;;;;;;;;2.30;99.90;;;1.19;92.26;95582.94;10548188;28;1914;-80
2020/12/01 16:11:14;;;;;;;;;;;2.30;99.90;;;1.19;92.16;95590.88;10553462;28;1997;-81
2020/12/01 16:16:16;;;;;;;;;;;2.20;99.90;;;1.25;93.11;95595.31;10556114;28;2032;-81
2020/12/01 16:21:20;;;;;;;;;;;2.30;99.90;;;1.22;92.57;95594.94;10558372;28;2069;-82
2020/12/01 16:26:22;;;;;;;;;;;2.30;99.90;;;1.22;92.35;95595.75;10557576;28;2128;-82
2020/12/01 16:31:24;;;;;;;;;;;2.30;99.90;;;1.20;92.74;95597.00;10551294;28;1965;-81
2020/12/01 16:36:26;;;;;;;;;;;2.30;99.90;;;1.22;92.86;95597.59;10542956;28;1965;-81
2020/12/01 16:41:28;;;;;;;;;;;3.10;99.90;;;1.20;92.54;95602.28;10548037;28;2000;-83
2020/12/01 16:46:30;;;;;;;;;;;3.70;99.90;;;1.19;92.72;95598.03;10555715;28;2021;-81
2020/12/01 16:51:32;;;;;;;;;;;2.30;99.90;;;1.20;93.00;95618.16;10556965;28;1839;-81
2020/12/01 16:56:34;;;;;;;;;;;3.30;99.90;;;1.19;92.93;95606.78;10568738;28;1992;-80
2020/12/01 17:01:36;;;;;;;;;;;2.20;99.90;;;1.13;92.62;95612.13;10561399;28;2029;-80
2020/12/01 17:06:40;;;;;;;;;;;2.30;99.90;;;1.07;92.33;95619.91;10547085;28;2134;-82
2020/12/01 17:11:44;;;;;;;;;;;2.40;99.90;;;1.05;93.18;95621.16;10551511;28;2147;-81
2020/12/01 17:16:46;;;;;;;;;;;2.00;99.90;;;1.06;92.79;95626.25;10541451;28;2044;-80
2020/12/01 17:21:48;;;;;;;;;;;2.10;99.90;;;1.03;91.96;95631.97;10565727;28;1869;-80
2020/12/01 17:26:49;;;;;;;;;;;2.80;99.90;;;0.90;92.18;95637.38;10547186;28;1964;-78
2020/12/01 17:31:51;;;;;;;;;;;3.40;99.90;;;0.92;92.84;95643.25;10539485;28;1958;-80
2020/12/01 17:36:53;;;;;;;;;;;2.10;99.90;;;0.92;92.83;95648.56;10542393;28;1992;-80
2020/12/01 17:41:55;;;;;;;;;;;2.00;99.90;;;0.96;92.74;95655.06;10552132;28;1984;-83
2020/12/01 17:46:56;;;;;;;;;;;2.00;99.90;;;0.99;93.29;95656.44;10534955;28;1746;-81
2020/12/01 17:51:58;;;;;;;;;;;2.10;99.90;;;0.99;92.01;95659.91;10543524;28;2016;-80
2020/12/01 17:56:59;;;;;;;;;;;2.10;99.90;;;0.94;92.88;95646.50;10535020;28;2075;-81
2020/12/01 18:02:01;;;;;;;;;;;2.10;99.90;;;0.90;92.94;95650.63;10534893;28;2033;-81
2020/12/01 18:07:03;;;;;;;;;;;2.00;99.90;;;0.80;92.96;95658.22;10538265;28;2185;-80
2020/12/01 18:12:04;;;;;;;;;;;2.00;99.90;;;0.69;93.35;95658.91;10529192;28;1996;-79
2020/12/01 18:17:06;;;;;;;;;;;1.90;99.90;;;0.67;92.79;95660.97;10559488;28;1986;-80
2020/12/01 18:22:08;;;;;;;;;;;1.80;99.90;;;0.65;92.87;95663.03;10550149;28;1488;-80
2020/12/01 18:27:10;;;;;;;;;;;1.80;99.90;;;0.66;92.92;95676.03;10546541;28;2096;-80
2020/12/01 18:32:11;;;;;;;;;;;3.10;99.90;;;0.72;92.33;95663.78;10520650;28;2020;-80
2020/12/01 18:37:13;;;;;;;;;;;1.80;99.90;;;0.65;92.91;95663.81;10548557;28;1961;-82
2020/12/01 18:42:15;;;;;;;;;;;2.80;99.90;;;0.70;93.26;95663.16;10538952;28;2125;-82
2020/12/01 18:47:20;;;;;;;;;;;1.80;99.90;;;0.75;93.11;95669.44;10538876;28;1981;-81
2020/12/01 18:52:21;;;;;;;;;;;1.80;99.90;;;0.72;92.98;95677.00;10549002;28;1580;-81
2020/12/01 18:57:24;;;;;;;;;;;1.90;99.90;;;0.67;93.04;95677.66;10547936;28;1909;-82
2020/12/01 19:02:26;;;;;;;;;;;1.80;99.90;;;0.63;92.95;95676.44;10533115;28;1350;-81
2020/12/01 19:07:28;;;;;;;;;;;3.10;99.90;;;0.59;93.56;95680.56;10539413;28;1520;-82
2020/12/01 19:12:29;;;;;;;;;;;1.80;99.90;;;0.57;93.20;95684.41;10542355;28;1541;-83
2020/12/01 19:17:31;;;;;;;;;;;2.50;99.90;;;0.48;92.53;95684.69;10547962;28;1970;-82
2020/12/01 19:22:33;;;;;;;;;;;1.60;99.90;;;0.56;93.12;95693.38;10565953;28;1664;-82
2020/12/01 19:27:34;;;;;;;;;;;3.20;99.90;;;0.63;93.30;95696.78;10554807;28;1537;-83
2020/12/01 19:32:36;;;;;;;;;;;1.60;99.90;;;0.67;93.75;95690.06;10534414;28;1476;-83
2020/12/01 19:37:38;;;;;;;;;;;3.30;99.90;;;0.78;93.40;95681.44;10545502;28;1906;-81
2020/12/01 19:42:40;;;;;;;;;;;1.80;99.90;;;0.85;93.19;95684.84;10543783;28;1642;-83
2020/12/01 19:47:42;;;;;;;;;;;1.80;99.90;;;0.83;92.63;95686.91;10549753;28;1327;-83
2020/12/01 19:52:43;;;;;;;;;;;2.50;99.90;;;0.85;92.62;95695.44;10548081;28;1631;-83
2020/12/01 19:57:45;;;;;;;;;;;1.90;99.90;;;0.92;92.94;95698.84;10565951;28;1906;-84
2020/12/01 20:02:47;;;;;;;;;;;2.00;99.90;;;1.05;92.66;95705.88;10572189;28;1658;-86
2020/12/01 20:07:58;;;;;;;;;;;2.80;99.90;;;1.05;92.73;95701.38;10568645;28;1455;-82
2020/12/01 20:18:40;;;;;;;;;;;2.70;99.90;;;0.89;92.02;95701.94;10438150;28;1906;-82
2020/12/01 20:23:42;;;;;;;;;;;3.90;99.90;;;0.98;91.79;95703.28;10427481;28;1916;-80
2020/12/01 20:28:44;;;;;;;;;;;2.00;99.90;;;0.75;91.30;95708.31;10413905;28;1970;-81
2020/12/01 20:33:46;;;;;;;;;;;1.90;99.90;;;0.66;92.18;95699.03;10431348;28;2100;-79
2020/12/01 20:38:47;;;;;;;;;;;1.80;99.90;;;0.60;92.71;95707.81;10428687;28;2041;-79
2020/12/01 20:43:49;;;;;;;;;;;2.90;99.90;;;0.54;93.16;95712.91;10426442;28;1897;-80
2020/12/01 20:48:52;;;;;;;;;;;1.70;99.90;;;0.48;93.59;95705.84;10500603;28;1655;-80
2020/12/01 20:53:54;;;;;;;;;;;1.60;99.90;;;0.53;93.82;95706.00;10564782;28;1889;-79
2020/12/01 20:58:55;;;;;;;;;;;1.60;99.90;;;0.65;93.94;95721.22;10536726;28;2048;-80
2020/12/01 21:03:57;;;;;;;;;;;1.70;99.90;;;0.56;93.42;95711.91;10558717;28;1929;-80
2020/12/01 21:08:59;;;;;;;;;;;1.70;99.90;;;0.39;93.75;95708.97;10556569;28;2005;-80
2020/12/01 21:14:01;;;;;;;;;;;1.60;99.90;;;0.30;93.52;95710.19;10568768;28;1938;-79
2020/12/01 21:19:03;;;;;;;;;;;1.50;99.90;;;0.10;93.94;95712.94;10531226;28;1997;-79
2020/12/01 21:24:05;;;;;;;;;;;1.30;99.90;;;0.04;94.85;95719.06;10535745;28;1722;-80
2020/12/01 21:29:07;;;;;;;;;;;1.20;99.90;;;-0.10;95.18;95723.56;10544185;28;1989;-81
2020/12/01 21:34:08;;;;;;;;;;;1.10;99.90;;;0.04;95.16;95717.22;10545383;28;1930;-79
2020/12/01 21:39:10;;;;;;;;;;;1.10;99.90;;;-0.07;95.22;95716.03;10539678;28;2079;-78
2020/12/01 21:44:12;;;;;;;;;;;1.10;99.90;;;-0.10;95.11;95708.53;10536523;28;2099;-79
2020/12/01 21:49:13;;;;;;;;;;;2.20;99.90;;;-0.20;95.08;95713.44;10531846;28;1712;-80
2020/12/01 21:54:15;;;;;;;;;;;1.00;99.90;;;-0.19;95.62;95715.06;10537662;28;2049;-80
2020/12/01 21:59:18;;;;;;;;;;;0.80;99.90;;;-0.04;95.62;95718.28;10558737;28;1886;-80
2020/12/01 22:04:20;;;;;;;;;;;1.00;99.90;;;-0.12;95.65;95715.88;10559548;28;1866;-80
2020/12/01 22:09:22;;;;;;;;;;;1.00;99.90;;;-0.07;95.68;95715.22;10560600;28;1726;-79
2020/12/01 22:14:24;;;;;;;;;;;1.00;99.90;;;-0.14;95.79;95711.78;10574897;28;1953;-79
2020/12/01 22:19:26;;;;;;;;;;;1.00;99.90;;;-0.19;95.36;95714.25;10560029;28;1981;-79
2020/12/01 22:24:29;;;;;;;;;;;1.40;99.90;;;-0.14;95.41;95712.59;10570328;28;1934;-79
2020/12/01 22:29:31;;;;;;;;;;;1.90;99.90;;;-0.09;94.88;95726.00;10559412;28;1969;-79
2020/12/01 22:34:32;;;;;;;;;;;0.90;99.90;;;-0.12;94.64;95726.44;10555673;28;1855;-81
2020/12/01 22:39:34;;;;;;;;;;;1.00;99.90;;;0.01;93.88;95724.78;10564586;28;1950;-80
2020/12/01 22:44:36;;;;;;;;;;;1.00;99.90;;;0.01;93.48;95714.19;10554849;28;1850;-78
2020/12/01 22:49:38;;;;;;;;;;;1.00;99.90;;;0.14;93.94;95708.88;10547317;28;1962;-79
2020/12/01 22:54:39;;;;;;;;;;;1.10;99.90;;;0.10;92.89;95710.28;10550597;28;1981;-77
2020/12/01 22:59:41;;;;;;;;;;;1.20;99.90;;;0.10;92.65;95707.66;10538789;28;2020;-79
2020/12/01 23:04:43;;;;;;;;;;;1.60;99.90;;;0.07;92.83;95708.09;10540437;28;1886;-79
2020/12/01 23:09:44;;;;;;;;;;;1.10;99.90;;;0.06;92.72;95704.59;10526625;28;2019;-78
2020/12/01 23:14:46;;;;;;;;;;;2.70;99.90;;;0.18;92.59;95708.22;10519570;28;1784;-80
2020/12/01 23:19:48;;;;;;;;;;;1.30;99.90;;;-0.03;92.16;95714.59;10529594;28;1969;-82
2020/12/01 23:24:49;;;;;;;;;;;1.10;99.90;;;-0.04;92.44;95713.00;10537579;28;1902;-79
2020/12/01 23:29:51;;;;;;;;;;;1.00;99.90;;;-0.15;92.20;95710.97;10539327;28;1855;-79
2020/12/01 23:34:52;;;;;;;;;;;1.00;99.90;;;-0.15;92.46;95708.34;10562800;28;1997;-79
2020/12/01 23:39:55;;;;;;;;;;;1.00;99.90;;;-0.16;92.55;95709.38;10566549;28;1891;-79
2020/12/01 23:44:56;;;;;;;;;;;0.90;99.90;;;-0.11;92.70;95708.75;10555504;28;1497;-79
2020/12/01 23:49:59;;;;;;;;;;;1.00;99.90;;;-0.13;93.16;95713.41;10533371;28;1823;-79
2020/12/01 23:55:00;;;;;;;;;;;0.90;99.90;;;-0.04;92.88;95699.78;10523273;28;2014;-79
